createdAt,value
2023-03-26T00:00:44.458Z,100470.13
2023-03-26T00:03:53.802Z,100475.25
2023-03-26T00:06:56.609Z,100477.69
2023-03-26T00:09:59.407Z,100495.94
2023-03-26T00:13:02.703Z,100492.41
2023-03-26T00:16:06.025Z,100492.69
2023-03-26T00:19:09.934Z,100481.38
2023-03-26T00:22:14.290Z,100485.75
2023-03-26T00:25:17.645Z,100480.72
2023-03-26T00:28:21.981Z,100476.44
2023-03-26T00:31:24.932Z,100469.81
2023-03-26T00:34:27.693Z,100475.59
2023-03-26T00:37:31.261Z,100479.03
2023-03-26T00:40:36.910Z,100477.09
2023-03-26T00:43:39.780Z,100478.00
2023-03-26T00:46:44.016Z,100476.75
2023-03-26T00:49:49.036Z,100473.16
2023-03-26T00:52:52.106Z,100472.75
2023-03-26T00:56:00.493Z,100459.44
2023-03-26T00:59:03.990Z,100462.00
2023-03-26T01:02:10.812Z,100457.09
2023-03-26T01:05:35.606Z,100462.34
2023-03-26T01:08:45.325Z,100458.34
2023-03-26T01:11:49.878Z,100461.19
2023-03-26T01:15:00.843Z,100454.97
2023-03-26T01:18:06.043Z,100467.13
2023-03-26T01:21:09.851Z,100465.63
2023-03-26T01:24:13.897Z,100469.06
2023-03-26T01:27:24.646Z,100482.53
2023-03-26T01:31:25.411Z,100465.53
2023-03-26T01:35:03.676Z,100463.25
2023-03-26T01:38:28.059Z,100460.66
2023-03-26T01:41:42.986Z,100457.53
2023-03-26T01:44:57.055Z,100442.31
2023-03-26T01:48:00.590Z,100432.66
2023-03-26T01:51:05.021Z,100429.22
2023-03-26T01:54:13.061Z,100428.72
2023-03-26T01:57:37.713Z,100423.28
2023-03-26T02:00:51.936Z,100421.69
2023-03-26T02:04:06.420Z,100422.03
2023-03-26T02:07:13.800Z,100429.06
2023-03-26T02:10:24.355Z,100429.72
2023-03-26T02:13:28.069Z,100441.19
2023-03-26T02:16:30.892Z,100441.03
2023-03-26T02:19:33.708Z,100446.75
2023-03-26T02:22:41.181Z,100454.94
2023-03-26T02:25:45.762Z,100454.13
2023-03-26T02:28:48.815Z,100453.00
2023-03-26T02:31:51.978Z,100448.06
2023-03-26T02:34:54.766Z,100445.13
2023-03-26T02:37:57.689Z,100450.38
2023-03-26T02:41:01.481Z,100435.28
2023-03-26T02:44:14.476Z,100445.97
2023-03-26T02:47:51.287Z,100449.22
2023-03-26T02:51:29.662Z,100445.63
2023-03-26T02:54:37.212Z,100441.50
2023-03-26T02:57:53.289Z,100435.75
2023-03-26T03:00:59.356Z,100443.25
2023-03-26T03:04:12.995Z,100448.19
2023-03-26T03:07:16.538Z,100449.06
2023-03-26T03:10:22.174Z,100453.97
2023-03-26T03:13:44.788Z,100452.84
2023-03-26T03:16:49.163Z,100455.75
2023-03-26T03:19:51.998Z,100461.00
2023-03-26T03:22:54.997Z,100456.59
2023-03-26T03:25:59.297Z,100459.69
2023-03-26T03:29:02.454Z,100443.16
2023-03-26T03:32:05.652Z,100445.91
2023-03-26T03:35:17.505Z,100456.09
2023-03-26T03:38:25.421Z,100462.16
2023-03-26T03:41:30.107Z,100449.88
2023-03-26T03:44:33.861Z,100463.63
2023-03-26T03:47:39.900Z,100468.81
2023-03-26T03:50:43.264Z,100484.97
2023-03-26T03:54:08.694Z,100483.63
2023-03-26T03:57:22.188Z,100482.28
2023-03-26T04:00:34.116Z,100473.75
2023-03-26T04:03:58.285Z,100486.81
2023-03-26T04:07:13.423Z,100477.31
2023-03-26T04:10:35.740Z,100475.16
2023-03-26T04:13:47.377Z,100481.84
2023-03-26T04:17:06.037Z,100485.28
2023-03-26T04:20:15.958Z,100485.47
2023-03-26T04:23:22.745Z,100488.41
2023-03-26T04:26:32.601Z,100480.63
2023-03-26T04:29:46.187Z,100493.22
2023-03-26T04:32:54.302Z,100487.16
2023-03-26T04:36:01.837Z,100488.53
2023-03-26T04:39:07.736Z,100500.44
2023-03-26T04:42:33.441Z,100502.28
2023-03-26T04:45:48.212Z,100510.06
2023-03-26T04:48:55.117Z,100508.28
2023-03-26T04:51:58.196Z,100504.28
2023-03-26T04:55:33.247Z,100502.00
2023-03-26T04:58:43.431Z,100499.16
2023-03-26T05:01:47.476Z,100490.72
2023-03-26T05:04:52.630Z,100492.13
2023-03-26T05:07:56.780Z,100496.75
2023-03-26T05:10:59.840Z,100504.94
2023-03-26T05:14:09.006Z,100507.75
2023-03-26T05:17:15.209Z,100510.53
2023-03-26T05:20:22.361Z,100510.38
2023-03-26T05:23:25.837Z,100499.75
2023-03-26T05:26:52.133Z,100504.59
2023-03-26T05:30:02.997Z,100505.78
2023-03-26T05:33:13.162Z,100506.78
2023-03-26T05:36:23.283Z,100504.28
2023-03-26T05:39:41.367Z,100503.22
2023-03-26T05:43:03.555Z,100489.91
2023-03-26T05:46:12.978Z,100497.44
2023-03-26T05:49:15.903Z,100484.69
2023-03-26T05:52:19.408Z,100478.13
2023-03-26T05:55:55.879Z,100485.88
2023-03-26T05:59:17.262Z,100487.56
2023-03-26T06:02:39.447Z,100495.25
2023-03-26T06:06:10.673Z,100496.31
2023-03-26T06:09:18.973Z,100498.13
2023-03-26T06:12:22.265Z,100489.41
2023-03-26T06:15:25.273Z,100487.78
2023-03-26T06:18:37.039Z,100484.53
2023-03-26T06:22:15.824Z,100485.19
2023-03-26T06:25:37.665Z,100477.00
2023-03-26T06:28:49.726Z,100477.88
2023-03-26T06:32:25.206Z,100480.03
2023-03-26T06:35:32.527Z,100486.44
2023-03-26T06:38:35.739Z,100471.59
2023-03-26T06:41:41.565Z,100460.53
2023-03-26T06:44:55.961Z,100461.97
2023-03-26T06:48:17.358Z,100461.31
2023-03-26T06:51:33.640Z,100451.91
2023-03-26T06:55:13.782Z,100455.59
2023-03-26T06:58:24.557Z,100443.69
2023-03-26T07:01:46.850Z,100440.38
2023-03-26T07:05:22.678Z,100434.00
2023-03-26T07:08:44.183Z,100440.38
2023-03-26T07:12:12.924Z,100432.50
2023-03-26T07:15:34.750Z,100435.75
2023-03-26T07:18:58.022Z,100429.00
2023-03-26T07:22:06.689Z,100424.41
2023-03-26T07:25:42.227Z,100426.31
2023-03-26T07:29:33.091Z,100422.50
2023-03-26T07:33:14.779Z,100409.50
2023-03-26T07:36:57.540Z,100423.13
2023-03-26T07:40:40.865Z,100410.72
2023-03-26T07:44:44.047Z,100408.06
2023-03-26T07:47:57.227Z,100401.00
2023-03-26T07:51:12.408Z,100394.84
2023-03-26T07:54:34.237Z,100394.16
2023-03-26T07:58:05.647Z,100387.69
2023-03-26T08:02:06.023Z,100392.88
2023-03-26T08:05:20.407Z,100379.00
2023-03-26T08:08:47.971Z,100385.22
2023-03-26T08:12:51.555Z,100379.72
2023-03-26T08:15:58.370Z,100381.59
2023-03-26T08:19:19.669Z,100369.50
2023-03-26T08:22:31.626Z,100368.69
2023-03-26T08:25:52.035Z,100361.97
2023-03-26T08:29:16.784Z,100355.13
2023-03-26T08:32:20.733Z,100361.53
2023-03-26T08:35:25.628Z,100362.22
2023-03-26T08:38:28.619Z,100354.28
2023-03-26T08:42:21.661Z,100352.78
2023-03-26T08:45:56.771Z,100351.47
2023-03-26T08:49:09.089Z,100347.03
2023-03-26T08:52:21.776Z,100339.94
2023-03-26T08:55:55.425Z,100330.22
2023-03-26T08:59:36.262Z,100335.88
2023-03-26T09:03:03.329Z,100342.56
2023-03-26T09:06:25.439Z,100344.41
2023-03-26T09:09:37.310Z,100341.75
2023-03-26T09:13:01.298Z,100325.22
2023-03-26T09:16:29.912Z,100334.75
2023-03-26T09:20:10.150Z,100317.53
2023-03-26T09:23:19.408Z,100318.03
2023-03-26T09:26:51.113Z,100309.31
2023-03-26T09:30:21.835Z,100308.78
2023-03-26T09:33:52.338Z,100310.09
2023-03-26T09:37:33.756Z,100301.84
2023-03-26T09:41:13.953Z,100289.50
2023-03-26T09:44:56.544Z,100280.84
2023-03-26T09:48:19.141Z,100278.63
2023-03-26T09:51:38.615Z,100285.00
2023-03-26T09:54:50.667Z,100266.78
2023-03-26T09:58:33.185Z,100281.97
2023-03-26T10:01:38.826Z,100282.88
2023-03-26T10:04:59.708Z,100261.22
2023-03-26T10:08:40.123Z,100248.50
2023-03-26T10:12:12.380Z,100243.34
2023-03-26T10:15:27.224Z,100230.63
2023-03-26T10:18:50.161Z,100205.94
2023-03-26T10:22:14.137Z,100223.00
2023-03-26T10:25:42.815Z,100199.94
2023-03-26T10:28:59.593Z,100203.06
2023-03-26T10:32:44.423Z,100197.38
2023-03-26T10:35:53.308Z,100186.22
2023-03-26T10:39:38.487Z,100180.72
2023-03-26T10:43:07.353Z,100174.25
2023-03-26T10:46:26.657Z,100187.91
2023-03-26T10:49:55.788Z,100168.59
2023-03-26T10:53:23.540Z,100170.91
2023-03-26T10:56:41.003Z,100151.78
2023-03-26T10:59:43.768Z,100137.50
2023-03-26T11:02:59.268Z,100142.69
2023-03-26T11:06:20.527Z,100139.88
2023-03-26T11:09:38.731Z,100137.06
2023-03-26T11:13:14.682Z,100137.72
2023-03-26T11:16:44.839Z,100131.78
2023-03-26T11:19:47.553Z,100121.44
2023-03-26T11:23:05.880Z,100113.59
2023-03-26T11:26:17.443Z,100105.91
2023-03-26T11:29:49.951Z,100103.50
2023-03-26T11:32:57.894Z,100101.66
2023-03-26T11:36:09.043Z,100088.94
2023-03-26T11:39:17.894Z,100083.69
2023-03-26T11:42:24.526Z,100085.66
2023-03-26T11:45:32.244Z,100088.06
2023-03-26T11:48:49.145Z,100075.75
2023-03-26T11:51:52.251Z,100069.25
2023-03-26T11:54:59.520Z,100059.56
2023-03-26T11:58:06.220Z,100053.69
2023-03-26T12:01:30.105Z,100045.59
2023-03-26T12:04:41.822Z,100031.84
2023-03-26T12:07:51.441Z,100050.56
2023-03-26T12:11:10.454Z,100035.84
2023-03-26T12:14:24.994Z,100029.72
2023-03-26T12:17:35.973Z,100018.16
2023-03-26T12:20:39.804Z,100006.91
2023-03-26T12:23:51.700Z,100002.34
2023-03-26T12:27:02.237Z,99994.38
2023-03-26T12:30:26.341Z,99986.53
2023-03-26T12:33:34.343Z,99965.47
2023-03-26T12:36:39.121Z,99967.97
2023-03-26T12:40:08.608Z,99967.75
2023-03-26T12:44:49.858Z,99954.47
2023-03-26T12:47:57.902Z,99938.16
2023-03-26T12:50:15.681Z,99935.84
2023-03-26T12:53:34.085Z,99926.03
2023-03-26T12:56:42.025Z,99918.44
2023-03-26T13:00:23.033Z,99923.81
2023-03-26T13:03:52.907Z,99916.91
2023-03-26T13:07:14.311Z,99910.34
2023-03-26T13:10:34.973Z,99912.38
2023-03-26T13:13:52.890Z,99898.56
2023-03-26T13:17:02.726Z,99886.47
2023-03-26T13:20:35.632Z,99881.03
2023-03-26T13:23:50.433Z,99864.06
2023-03-26T13:27:31.031Z,99862.38
2023-03-26T13:30:59.152Z,99854.25
2023-03-26T13:34:28.607Z,99853.34
2023-03-26T13:37:37.329Z,99834.72
2023-03-26T13:41:15.647Z,99828.75
2023-03-26T13:44:33.709Z,99822.84
2023-03-26T13:47:41.542Z,99804.84
2023-03-26T13:51:10.018Z,99805.13
2023-03-26T13:54:30.720Z,99803.63
2023-03-26T13:57:39.632Z,99801.03
2023-03-26T14:00:55.739Z,99798.72
2023-03-26T14:04:06.957Z,99788.31
2023-03-26T14:07:16.092Z,99792.72
2023-03-26T14:10:25.004Z,99786.00
2023-03-26T14:14:16.961Z,99780.09
2023-03-26T14:17:58.798Z,99765.13
2023-03-26T14:21:43.050Z,99759.34
2023-03-26T14:24:55.101Z,99761.44
2023-03-26T14:28:21.773Z,99749.09
2023-03-26T14:31:51.642Z,99738.03
2023-03-26T14:35:11.755Z,99727.03
2023-03-26T14:38:37.286Z,99719.72
2023-03-26T14:41:49.220Z,99725.09
2023-03-26T14:45:26.394Z,99710.13
2023-03-26T14:48:54.104Z,99703.41
2023-03-26T14:52:07.535Z,99686.16
2023-03-26T14:55:26.872Z,99696.91
2023-03-26T14:58:42.082Z,99690.72
2023-03-26T15:02:17.629Z,99683.28
2023-03-26T15:05:26.723Z,99673.28
2023-03-26T15:08:51.795Z,99663.63
2023-03-26T15:12:13.723Z,99656.97
2023-03-26T15:16:05.412Z,99646.13
2023-03-26T15:19:20.703Z,99643.25
2023-03-26T15:22:39.223Z,99647.00
2023-03-26T15:26:04.319Z,99639.09
2023-03-26T15:29:45.925Z,99630.59
2023-03-26T15:32:58.471Z,99626.34
2023-03-26T15:36:04.266Z,99626.19
2023-03-26T15:39:59.784Z,99626.63
2023-03-26T15:43:13.601Z,99616.69
2023-03-26T15:46:51.918Z,99614.94
2023-03-26T15:50:32.314Z,99608.28
2023-03-26T15:53:45.319Z,99614.53
2023-03-26T15:57:20.157Z,99604.66
2023-03-26T16:00:26.053Z,99598.31
2023-03-26T16:03:39.959Z,99584.72
2023-03-26T16:06:54.738Z,99585.53
2023-03-26T16:10:13.601Z,99576.69
2023-03-26T16:13:17.528Z,99575.91
2023-03-26T16:16:25.485Z,99571.91
2023-03-26T16:19:49.130Z,99563.03
2023-03-26T16:22:52.325Z,99555.84
2023-03-26T16:26:19.706Z,99555.91
2023-03-26T16:29:26.946Z,99556.22
2023-03-26T16:32:36.678Z,99551.13
2023-03-26T16:35:42.096Z,99544.72
2023-03-26T16:39:07.298Z,99545.78
2023-03-26T16:42:16.330Z,99545.22
2023-03-26T16:45:27.325Z,99546.81
2023-03-26T16:48:55.701Z,99544.91
2023-03-26T16:52:35.851Z,99548.63
2023-03-26T16:55:42.860Z,99546.50
2023-03-26T16:59:01.899Z,99550.75
2023-03-26T17:02:23.328Z,99540.84
2023-03-26T17:06:02.400Z,99538.41
2023-03-26T17:09:24.804Z,99538.66
2023-03-26T17:12:46.602Z,99537.56
2023-03-26T17:16:16.787Z,99530.06
2023-03-26T17:19:42.018Z,99533.22
2023-03-26T17:23:22.373Z,99527.31
2023-03-26T17:26:42.652Z,99527.78
2023-03-26T17:30:00.513Z,99538.91
2023-03-26T17:33:06.190Z,99534.63
2023-03-26T17:36:12.026Z,99529.09
2023-03-26T17:39:21.405Z,99527.22
2023-03-26T17:42:29.037Z,99530.66
2023-03-26T17:45:37.098Z,99524.50
2023-03-26T17:48:47.043Z,99528.00
2023-03-26T17:52:15.549Z,99518.63
2023-03-26T17:55:22.413Z,99516.19
2023-03-26T17:58:31.935Z,99510.00
2023-03-26T18:01:44.304Z,99505.47
2023-03-26T18:04:52.994Z,99505.19
2023-03-26T18:08:28.281Z,99496.88
2023-03-26T18:11:56.257Z,99492.59
2023-03-26T18:15:20.977Z,99480.34
2023-03-26T18:18:29.939Z,99485.88
2023-03-26T18:21:39.451Z,99477.38
2023-03-26T18:24:42.327Z,99478.16
2023-03-26T18:27:45.821Z,99470.94
2023-03-26T18:30:49.302Z,99466.06
2023-03-26T18:33:59.400Z,99464.97
2023-03-26T18:37:15.000Z,99463.97
2023-03-26T18:40:21.247Z,99461.84
2023-03-26T18:43:34.453Z,99449.03
2023-03-26T18:46:38.892Z,99449.50
2023-03-26T18:49:47.277Z,99443.66
2023-03-26T18:52:51.427Z,99436.47
2023-03-26T18:55:54.640Z,99433.22
2023-03-26T18:58:59.727Z,99436.63
2023-03-26T19:02:07.545Z,99425.19
2023-03-26T19:05:15.734Z,99421.13
2023-03-26T19:08:19.775Z,99415.56
2023-03-26T19:11:24.447Z,99402.53
2023-03-26T19:14:28.728Z,99402.00
2023-03-26T19:17:39.346Z,99389.25
2023-03-26T19:20:45.922Z,99389.78
2023-03-26T19:23:49.986Z,99378.63
2023-03-26T19:26:53.578Z,99358.38
2023-03-26T19:29:57.736Z,99358.09
2023-03-26T19:33:13.863Z,99343.66
2023-03-26T19:36:21.507Z,99336.47
2023-03-26T19:39:39.669Z,99333.97
2023-03-26T19:42:44.996Z,99332.63
2023-03-26T19:49:47.243Z,99301.06
2023-03-26T19:51:18.388Z,99320.28
2023-03-26T19:53:16.808Z,99298.41
2023-03-26T19:56:22.125Z,99299.91
2023-03-26T19:59:25.261Z,99301.75
2023-03-26T20:02:29.356Z,99319.88
2023-03-26T20:05:36.501Z,99337.06
2023-03-26T20:08:40.745Z,99331.03
2023-03-26T20:11:43.929Z,99349.56
2023-03-26T20:14:48.927Z,99339.66
2023-03-26T20:17:55.736Z,99346.81
2023-03-26T20:21:01.764Z,99333.69
2023-03-26T20:24:15.034Z,99341.50
2023-03-26T20:27:19.364Z,99345.78
2023-03-26T20:30:37.052Z,99319.28
2023-03-26T20:33:41.355Z,99332.28
2023-03-26T20:36:45.807Z,99303.09
2023-03-26T20:39:48.660Z,99297.91
2023-03-26T20:42:51.868Z,99275.31
2023-03-26T20:45:55.895Z,99282.28
2023-03-26T20:49:00.035Z,99269.56
2023-03-26T20:52:03.070Z,99246.56
2023-03-26T20:55:06.480Z,99240.75
2023-03-26T20:58:13.617Z,99264.34
2023-03-26T21:01:17.681Z,99258.22
2023-03-26T21:04:22.516Z,99261.94
2023-03-26T21:07:25.334Z,99259.53
2023-03-26T21:10:31.690Z,99248.34
2023-03-26T21:13:50.166Z,99233.41
2023-03-26T21:16:53.860Z,99234.38
2023-03-26T21:19:57.732Z,99230.03
2023-03-26T21:23:10.103Z,99219.91
2023-03-26T21:26:32.792Z,99206.53
2023-03-26T21:29:35.947Z,99199.69
2023-03-26T21:32:39.352Z,99202.56
2023-03-26T21:35:42.575Z,99197.63
2023-03-26T21:38:46.394Z,99201.00
2023-03-26T21:42:04.977Z,99195.44
2023-03-26T21:45:09.836Z,99181.09
2023-03-26T21:48:13.363Z,99178.03
2023-03-26T21:51:19.438Z,99168.63
2023-03-26T21:54:25.969Z,99163.56
2023-03-26T21:57:36.907Z,99164.13
2023-03-26T22:01:01.615Z,99171.06
2023-03-26T22:04:15.560Z,99167.56
2023-03-26T22:07:23.394Z,99166.66
2023-03-26T22:10:27.518Z,99175.09
2023-03-26T22:13:31.230Z,99183.69
2023-03-26T22:16:34.132Z,99177.84
2023-03-26T22:19:37.392Z,99180.81
2023-03-26T22:22:48.890Z,99174.13
2023-03-26T22:25:52.405Z,99162.88
2023-03-26T22:28:55.133Z,99159.81
2023-03-26T22:31:58.029Z,99160.94
2023-03-26T22:35:01.332Z,99143.78
2023-03-26T22:38:05.255Z,99122.31
2023-03-26T22:41:08.653Z,99116.88
2023-03-26T22:44:19.648Z,99114.72
2023-03-26T22:47:22.892Z,99115.75
2023-03-26T22:50:27.158Z,99115.53
2023-03-26T22:53:31.054Z,99112.63
2023-03-26T22:56:34.133Z,99109.66
2023-03-26T22:59:37.565Z,99116.38
2023-03-26T23:02:41.269Z,99127.56
2023-03-26T23:05:44.239Z,99129.16
2023-03-26T23:08:47.290Z,99127.31
2023-03-26T23:11:51.054Z,99116.97
2023-03-26T23:14:54.083Z,99112.22
2023-03-26T23:17:58.741Z,99116.38
2023-03-26T23:21:01.793Z,99132.78
2023-03-26T23:24:05.291Z,99135.09
2023-03-26T23:27:08.513Z,99118.97
2023-03-26T23:30:12.004Z,99097.84
2023-03-26T23:33:14.941Z,99079.56
2023-03-26T23:36:19.595Z,99062.22
2023-03-26T23:39:22.473Z,99062.69
2023-03-26T23:42:28.631Z,99079.91
2023-03-26T23:45:33.548Z,99070.63
2023-03-26T23:48:37.760Z,99069.31
2023-03-26T23:51:40.778Z,99063.47
2023-03-26T23:54:44.790Z,99061.88
2023-03-26T23:57:47.854Z,99052.78
